sensor_id;sensor_type;location;lat;lon;timestamp;pressure;altitude;pressure_sealevel;temperature;humidity
82555;BME280;72219;48.186;11.554;2023-11-21T00:00:14;95257.66;;;15.86;47.27
82555;BME280;72219;48.186;11.554;2023-11-21T00:02:44;95259.88;;;15.89;47.25
82555;BME280;72219;48.186;11.554;2023-11-21T00:05:11;95246.59;;;15.84;46.99
82555;BME280;72219;48.186;11.554;2023-11-21T00:07:39;95248.91;;;15.79;47.00
82555;BME280;72219;48.186;11.554;2023-11-21T00:10:06;95252.25;;;15.88;47.11
82555;BME280;72219;48.186;11.554;2023-11-21T00:12:33;95255.03;;;15.86;46.98
82555;BME280;72219;48.186;11.554;2023-11-21T00:15:00;95250.03;;;15.85;46.93
82555;BME280;72219;48.186;11.554;2023-11-21T00:17:27;95247.41;;;15.85;47.25
82555;BME280;72219;48.186;11.554;2023-11-21T00:19:52;95236.97;;;15.85;47.21
82555;BME280;72219;48.186;11.554;2023-11-21T00:22:18;95222.19;;;15.77;47.16
82555;BME280;72219;48.186;11.554;2023-11-21T00:24:44;95224.91;;;15.84;47.44
82555;BME280;72219;48.186;11.554;2023-11-21T00:27:09;95221.94;;;15.87;47.01
82555;BME280;72219;48.186;11.554;2023-11-21T00:29:35;95214.75;;;15.89;47.37
82555;BME280;72219;48.186;11.554;2023-11-21T00:32:01;95207.25;;;15.86;47.30
82555;BME280;72219;48.186;11.554;2023-11-21T00:34:27;95201.94;;;15.79;47.56
82555;BME280;72219;48.186;11.554;2023-11-21T00:36:53;95202.59;;;15.81;47.48
82555;BME280;72219;48.186;11.554;2023-11-21T00:39:18;95202.31;;;15.76;47.37
82555;BME280;72219;48.186;11.554;2023-11-21T00:41:43;95183.44;;;15.74;47.46
82555;BME280;72219;48.186;11.554;2023-11-21T00:44:10;95184.44;;;15.73;47.31
82555;BME280;72219;48.186;11.554;2023-11-21T00:46:36;95189.56;;;15.81;47.57
82555;BME280;72219;48.186;11.554;2023-11-21T00:49:02;95189.91;;;15.78;47.10
82555;BME280;72219;48.186;11.554;2023-11-21T00:51:29;95193.16;;;15.80;47.33
82555;BME280;72219;48.186;11.554;2023-11-21T00:53:55;95194.13;;;15.79;47.52
82555;BME280;72219;48.186;11.554;2023-11-21T00:56:21;95183.44;;;15.74;47.16
82555;BME280;72219;48.186;11.554;2023-11-21T00:58:47;95188.19;;;15.85;47.25
82555;BME280;72219;48.186;11.554;2023-11-21T01:01:17;95190.09;;;15.76;47.63
82555;BME280;72219;48.186;11.554;2023-11-21T01:03:43;95187.31;;;15.78;47.58
82555;BME280;72219;48.186;11.554;2023-11-21T01:06:12;95189.44;;;15.89;47.35
82555;BME280;72219;48.186;11.554;2023-11-21T01:08:37;95179.13;;;15.81;47.32
82555;BME280;72219;48.186;11.554;2023-11-21T01:11:04;95186.28;;;15.79;47.25
82555;BME280;72219;48.186;11.554;2023-11-21T01:13:33;95192.88;;;15.75;47.19
82555;BME280;72219;48.186;11.554;2023-11-21T01:16:00;95187.84;;;15.73;47.30
82555;BME280;72219;48.186;11.554;2023-11-21T01:18:25;95192.16;;;15.81;47.63
82555;BME280;72219;48.186;11.554;2023-11-21T01:20:51;95191.78;;;15.84;47.11
82555;BME280;72219;48.186;11.554;2023-11-21T01:23:18;95187.50;;;15.76;47.57
82555;BME280;72219;48.186;11.554;2023-11-21T01:25:43;95196.72;;;15.79;47.03
82555;BME280;72219;48.186;11.554;2023-11-21T01:28:09;95196.13;;;15.77;47.21
82555;BME280;72219;48.186;11.554;2023-11-21T01:30:34;95193.69;;;15.75;47.31
82555;BME280;72219;48.186;11.554;2023-11-21T01:33:00;95204.56;;;15.79;46.93
82555;BME280;72219;48.186;11.554;2023-11-21T01:35:26;95202.75;;;15.79;47.37
82555;BME280;72219;48.186;11.554;2023-11-21T01:37:51;95201.53;;;15.75;47.31
82555;BME280;72219;48.186;11.554;2023-11-21T01:40:17;95193.69;;;15.75;47.27
82555;BME280;72219;48.186;11.554;2023-11-21T01:42:43;95207.63;;;15.83;47.73
82555;BME280;72219;48.186;11.554;2023-11-21T01:45:10;95199.34;;;15.79;47.35
82555;BME280;72219;48.186;11.554;2023-11-21T01:47:37;95195.47;;;15.75;47.52
82555;BME280;72219;48.186;11.554;2023-11-21T01:50:03;95200.53;;;15.76;46.89
82555;BME280;72219;48.186;11.554;2023-11-21T01:52:33;95206.34;;;15.78;47.13
82555;BME280;72219;48.186;11.554;2023-11-21T01:55:00;95205.91;;;15.75;47.23
82555;BME280;72219;48.186;11.554;2023-11-21T01:57:26;95199.91;;;15.74;47.38
82555;BME280;72219;48.186;11.554;2023-11-21T01:59:54;95210.13;;;15.76;47.06
82555;BME280;72219;48.186;11.554;2023-11-21T02:02:19;95201.88;;;15.72;47.12
82555;BME280;72219;48.186;11.554;2023-11-21T02:04:45;95216.34;;;15.75;47.47
82555;BME280;72219;48.186;11.554;2023-11-21T02:07:10;95210.78;;;15.78;47.45
82555;BME280;72219;48.186;11.554;2023-11-21T02:09:36;95200.19;;;15.64;47.27
82555;BME280;72219;48.186;11.554;2023-11-21T02:12:04;95219.41;;;15.78;47.06
82555;BME280;72219;48.186;11.554;2023-11-21T02:14:30;95223.28;;;15.83;46.86
82555;BME280;72219;48.186;11.554;2023-11-21T02:16:56;95219.59;;;15.77;47.31
82555;BME280;72219;48.186;11.554;2023-11-21T02:19:42;95224.34;;;15.73;47.52
82555;BME280;72219;48.186;11.554;2023-11-21T02:22:07;95214.75;;;15.74;47.59
82555;BME280;72219;48.186;11.554;2023-11-21T02:24:33;95231.38;;;15.73;47.16
82555;BME280;72219;48.186;11.554;2023-11-21T02:26:58;95221.41;;;15.76;47.46
82555;BME280;72219;48.186;11.554;2023-11-21T02:29:24;95219.13;;;15.73;47.35
82555;BME280;72219;48.186;11.554;2023-11-21T02:31:54;95226.34;;;15.71;47.26
82555;BME280;72219;48.186;11.554;2023-11-21T02:34:20;95214.50;;;15.69;47.25
82555;BME280;72219;48.186;11.554;2023-11-21T02:36:46;95185.66;;;15.55;47.04
82555;BME280;72219;48.186;11.554;2023-11-21T02:39:15;95208.72;;;15.73;47.38
82555;BME280;72219;48.186;11.554;2023-11-21T02:41:42;95194.78;;;15.66;47.38
82555;BME280;72219;48.186;11.554;2023-11-21T02:44:08;95207.16;;;15.79;47.27
82555;BME280;72219;48.186;11.554;2023-11-21T02:46:35;95192.19;;;15.66;47.31
82555;BME280;72219;48.186;11.554;2023-11-21T02:49:02;95200.09;;;15.73;47.24
82555;BME280;72219;48.186;11.554;2023-11-21T02:51:27;95198.47;;;15.72;47.18
82555;BME280;72219;48.186;11.554;2023-11-21T02:53:53;95197.47;;;15.73;47.19
82555;BME280;72219;48.186;11.554;2023-11-21T02:56:21;95184.16;;;15.68;47.46
82555;BME280;72219;48.186;11.554;2023-11-21T02:58:48;95185.22;;;15.73;47.08
82555;BME280;72219;48.186;11.554;2023-11-21T03:01:15;95191.81;;;15.69;47.03
82555;BME280;72219;48.186;11.554;2023-11-21T03:03:40;95187.75;;;15.67;47.21
82555;BME280;72219;48.186;11.554;2023-11-21T03:06:07;95190.44;;;15.73;47.34
82555;BME280;72219;48.186;11.554;2023-11-21T03:08:33;95191.09;;;15.75;46.91
82555;BME280;72219;48.186;11.554;2023-11-21T03:10:59;95194.22;;;15.71;47.48
82555;BME280;72219;48.186;11.554;2023-11-21T03:13:25;95190.09;;;15.76;47.26
82555;BME280;72219;48.186;11.554;2023-11-21T03:15:50;95189.00;;;15.71;47.34
82555;BME280;72219;48.186;11.554;2023-11-21T03:18:16;95187.22;;;15.71;47.15
82555;BME280;72219;48.186;11.554;2023-11-21T03:20:43;95181.56;;;15.68;47.22
82555;BME280;72219;48.186;11.554;2023-11-21T03:23:12;95184.97;;;15.68;47.42
82555;BME280;72219;48.186;11.554;2023-11-21T03:25:37;95170.06;;;15.62;47.17
82555;BME280;72219;48.186;11.554;2023-11-21T03:28:04;95177.00;;;15.70;47.29
82555;BME280;72219;48.186;11.554;2023-11-21T03:30:29;95187.03;;;15.73;47.27
82555;BME280;72219;48.186;11.554;2023-11-21T03:32:55;95180.59;;;15.69;47.18
82555;BME280;72219;48.186;11.554;2023-11-21T03:35:21;95173.94;;;15.66;46.89
82555;BME280;72219;48.186;11.554;2023-11-21T03:37:47;95184.16;;;15.68;47.23
82555;BME280;72219;48.186;11.554;2023-11-21T03:40:12;95175.97;;;15.71;46.99
82555;BME280;72219;48.186;11.554;2023-11-21T03:42:39;95173.94;;;15.66;47.21
82555;BME280;72219;48.186;11.554;2023-11-21T03:45:08;95178.59;;;15.71;46.93
82555;BME280;72219;48.186;11.554;2023-11-21T03:47:34;95176.81;;;15.71;47.30
82555;BME280;72219;48.186;11.554;2023-11-21T03:50:00;95168.16;;;15.71;47.36
82555;BME280;72219;48.186;11.554;2023-11-21T03:52:26;95172.56;;;15.70;46.99
82555;BME280;72219;48.186;11.554;2023-11-21T03:54:57;95164.66;;;15.63;47.34
82555;BME280;72219;48.186;11.554;2023-11-21T03:57:22;95169.16;;;15.70;47.35
82555;BME280;72219;48.186;11.554;2023-11-21T03:59:47;95177.59;;;15.72;47.14
82555;BME280;72219;48.186;11.554;2023-11-21T04:02:13;95176.59;;;15.73;46.98
82555;BME280;72219;48.186;11.554;2023-11-21T04:04:39;95182.19;;;15.70;46.99
82555;BME280;72219;48.186;11.554;2023-11-21T04:07:04;95170.53;;;15.66;47.11
82555;BME280;72219;48.186;11.554;2023-11-21T04:09:30;95162.69;;;15.66;47.18
82555;BME280;72219;48.186;11.554;2023-11-21T04:11:56;95165.31;;;15.66;47.46
82555;BME280;72219;48.186;11.554;2023-11-21T04:14:22;95175.91;;;15.64;47.24
82555;BME280;72219;48.186;11.554;2023-11-21T04:16:47;95170.88;;;15.62;47.14
82555;BME280;72219;48.186;11.554;2023-11-21T04:19:16;95172.50;;;15.63;47.03
82555;BME280;72219;48.186;11.554;2023-11-21T04:21:43;95166.41;;;15.56;47.50
82555;BME280;72219;48.186;11.554;2023-11-21T04:24:09;95165.59;;;15.56;47.51
82555;BME280;72219;48.186;11.554;2023-11-21T04:26:34;95169.88;;;15.63;46.97
82555;BME280;72219;48.186;11.554;2023-11-21T04:29:01;95180.97;;;15.66;47.36
82555;BME280;72219;48.186;11.554;2023-11-21T04:31:28;95185.72;;;15.62;47.53
82555;BME280;72219;48.186;11.554;2023-11-21T04:33:54;95182.38;;;15.68;46.86
82555;BME280;72219;48.186;11.554;2023-11-21T04:36:20;95186.78;;;15.68;47.21
82555;BME280;72219;48.186;11.554;2023-11-21T04:38:45;95193.63;;;15.69;46.96
82555;BME280;72219;48.186;11.554;2023-11-21T04:41:11;95185.78;;;15.69;47.40
82555;BME280;72219;48.186;11.554;2023-11-21T04:43:37;95185.34;;;15.65;47.38
82555;BME280;72219;48.186;11.554;2023-11-21T04:46:02;95179.53;;;15.63;47.33
82555;BME280;72219;48.186;11.554;2023-11-21T04:48:28;95182.28;;;15.61;47.66
82555;BME280;72219;48.186;11.554;2023-11-21T04:50:53;95180.50;;;15.62;46.92
82555;BME280;72219;48.186;11.554;2023-11-21T04:53:18;95183.31;;;15.60;47.13
82555;BME280;72219;48.186;11.554;2023-11-21T04:55:45;95184.03;;;15.54;47.08
82555;BME280;72219;48.186;11.554;2023-11-21T04:58:11;95189.31;;;15.61;47.14
82555;BME280;72219;48.186;11.554;2023-11-21T05:00:37;95200.91;;;15.58;47.34
82555;BME280;72219;48.186;11.554;2023-11-21T05:03:04;95193.72;;;15.60;47.46
82555;BME280;72219;48.186;11.554;2023-11-21T05:05:31;95191.47;;;15.57;47.54
82555;BME280;72219;48.186;11.554;2023-11-21T05:07:57;95187.34;;;15.63;47.51
82555;BME280;72219;48.186;11.554;2023-11-21T05:10:26;95183.31;;;15.60;47.28
82555;BME280;72219;48.186;11.554;2023-11-21T05:12:52;95189.56;;;15.66;47.24
82555;BME280;72219;48.186;11.554;2023-11-21T05:15:20;95166.69;;;15.46;47.30
82555;BME280;72219;48.186;11.554;2023-11-21T05:17:47;95188.13;;;15.63;47.19
82555;BME280;72219;48.186;11.554;2023-11-21T05:20:17;95188.88;;;15.57;47.52
82555;BME280;72219;48.186;11.554;2023-11-21T05:22:46;95196.06;;;15.55;47.07
82555;BME280;72219;48.186;11.554;2023-11-21T05:25:14;95193.00;;;15.52;47.05
82555;BME280;72219;48.186;11.554;2023-11-21T05:27:40;95191.66;;;15.56;47.02
82555;BME280;72219;48.186;11.554;2023-11-21T05:30:06;95204.16;;;15.60;47.21
82555;BME280;72219;48.186;11.554;2023-11-21T05:32:33;95193.09;;;15.58;47.19
82555;BME280;72219;48.186;11.554;2023-11-21T05:34:59;95194.72;;;15.59;47.09
82555;BME280;72219;48.186;11.554;2023-11-21T05:37:24;95199.94;;;15.59;47.04
82555;BME280;72219;48.186;11.554;2023-11-21T05:39:53;95203.53;;;15.58;47.29
82555;BME280;72219;48.186;11.554;2023-11-21T05:42:23;95211.16;;;15.60;47.34
82555;BME280;72219;48.186;11.554;2023-11-21T05:44:49;95203.91;;;15.55;47.43
82555;BME280;72219;48.186;11.554;2023-11-21T05:47:14;95213.34;;;15.56;47.49
82555;BME280;72219;48.186;11.554;2023-11-21T05:49:40;95206.97;;;15.59;47.06
82555;BME280;72219;48.186;11.554;2023-11-21T05:52:07;95212.59;;;15.62;47.19
82555;BME280;72219;48.186;11.554;2023-11-21T05:54:32;95190.97;;;15.47;47.33
82555;BME280;72219;48.186;11.554;2023-11-21T05:56:59;95214.94;;;15.57;47.03
82555;BME280;72219;48.186;11.554;2023-11-21T05:59:26;95216.19;;;15.61;47.48
82555;BME280;72219;48.186;11.554;2023-11-21T06:01:51;95220.16;;;15.57;47.42
82555;BME280;72219;48.186;11.554;2023-11-21T06:04:17;95220.78;;;15.59;47.46
82555;BME280;72219;48.186;11.554;2023-11-21T06:06:43;95211.72;;;15.55;47.29
82555;BME280;72219;48.186;11.554;2023-11-21T06:09:11;95215.97;;;15.56;47.11
82555;BME280;72219;48.186;11.554;2023-11-21T06:11:37;95221.78;;;15.58;47.34
82555;BME280;72219;48.186;11.554;2023-11-21T06:14:03;95219.34;;;15.57;47.21
82555;BME280;72219;48.186;11.554;2023-11-21T06:16:28;95229.53;;;15.52;47.69
82555;BME280;72219;48.186;11.554;2023-11-21T06:18:54;95229.34;;;15.53;47.25
82555;BME280;72219;48.186;11.554;2023-11-21T06:21:19;95236.63;;;15.58;47.34
82555;BME280;72219;48.186;11.554;2023-11-21T06:23:45;95239.06;;;15.59;47.48
82555;BME280;72219;48.186;11.554;2023-11-21T06:26:10;95238.41;;;15.57;47.48
82555;BME280;72219;48.186;11.554;2023-11-21T06:28:35;95227.09;;;15.50;47.45
82555;BME280;72219;48.186;11.554;2023-11-21T06:31:01;95230.59;;;15.57;47.28
82555;BME280;72219;48.186;11.554;2023-11-21T06:33:33;95239.50;;;15.63;47.03
82555;BME280;72219;48.186;11.554;2023-11-21T06:35:59;95242.19;;;15.55;47.49
82555;BME280;72219;48.186;11.554;2023-11-21T06:38:28;95242.28;;;15.61;47.26
82555;BME280;72219;48.186;11.554;2023-11-21T06:40:58;95247.94;;;15.65;46.87
82555;BME280;72219;48.186;11.554;2023-11-21T06:43:24;95236.97;;;15.55;47.25
82555;BME280;72219;48.186;11.554;2023-11-21T06:45:52;95246.06;;;15.59;47.37
82555;BME280;72219;48.186;11.554;2023-11-21T06:48:20;95249.84;;;15.56;47.01
82555;BME280;72219;48.186;11.554;2023-11-21T06:50:46;95248.69;;;15.59;47.43
82555;BME280;72219;48.186;11.554;2023-11-21T06:53:14;95256.06;;;15.55;47.52
82555;BME280;72219;48.186;11.554;2023-11-21T06:55:40;95259.28;;;15.57;47.28
82555;BME280;72219;48.186;11.554;2023-11-21T06:58:05;95265.75;;;15.61;47.25
82555;BME280;72219;48.186;11.554;2023-11-21T07:00:32;95267.56;;;15.61;47.41
82555;BME280;72219;48.186;11.554;2023-11-21T07:02:58;95267.56;;;15.61;46.73
82555;BME280;72219;48.186;11.554;2023-11-21T07:05:24;95274.56;;;15.60;47.00
82555;BME280;72219;48.186;11.554;2023-11-21T07:07:49;95269.63;;;15.66;46.75
82555;BME280;72219;48.186;11.554;2023-11-21T07:10:16;95275.19;;;15.62;47.19
82555;BME280;72219;48.186;11.554;2023-11-21T07:12:42;95274.56;;;15.60;46.94
82555;BME280;72219;48.186;11.554;2023-11-21T07:15:08;95277.63;;;15.64;46.82
82555;BME280;72219;48.186;11.554;2023-11-21T07:17:35;95283.94;;;15.70;47.03
82555;BME280;72219;48.186;11.554;2023-11-21T07:20:01;95283.75;;;15.71;46.71
82555;BME280;72219;48.186;11.554;2023-11-21T07:22:27;95286.34;;;15.71;46.99
82555;BME280;72219;48.186;11.554;2023-11-21T07:24:55;95275.47;;;15.68;46.97
82555;BME280;72219;48.186;11.554;2023-11-21T07:27:22;95277.28;;;15.67;46.43
82555;BME280;72219;48.186;11.554;2023-11-21T07:29:47;95299.03;;;15.74;47.00
82555;BME280;72219;48.186;11.554;2023-11-21T07:32:13;95298.22;;;15.74;46.86
82555;BME280;72219;48.186;11.554;2023-11-21T07:34:40;95300.00;;;15.73;46.98
82555;BME280;72219;48.186;11.554;2023-11-21T07:37:06;95292.63;;;15.77;46.96
82555;BME280;72219;48.186;11.554;2023-11-21T07:39:31;95298.47;;;15.79;46.47
82555;BME280;72219;48.186;11.554;2023-11-21T07:41:57;95291.56;;;15.86;46.83
82555;BME280;72219;48.186;11.554;2023-11-21T07:44:23;95293.44;;;15.92;46.30
82555;BME280;72219;48.186;11.554;2023-11-21T07:46:50;95293.81;;;15.89;46.47
82555;BME280;72219;48.186;11.554;2023-11-21T07:49:15;95300.72;;;15.97;45.99
82555;BME280;72219;48.186;11.554;2023-11-21T07:51:45;95297.13;;;15.98;46.05
82555;BME280;72219;48.186;11.554;2023-11-21T07:54:11;95289.69;;;15.80;46.55
82555;BME280;72219;48.186;11.554;2023-11-21T07:56:38;95264.84;;;15.84;46.10
82555;BME280;72219;48.186;11.554;2023-11-21T07:59:03;95302.44;;;16.05;45.83
82555;BME280;72219;48.186;11.554;2023-11-21T08:01:30;95283.63;;;15.94;46.12
82555;BME280;72219;48.186;11.554;2023-11-21T08:03:55;95296.31;;;15.97;45.94
82555;BME280;72219;48.186;11.554;2023-11-21T08:06:24;95292.16;;;16.03;46.18
82555;BME280;72219;48.186;11.554;2023-11-21T08:08:51;95295.84;;;16.09;46.20
82555;BME280;72219;48.186;11.554;2023-11-21T08:11:16;95292.88;;;16.12;45.53
82555;BME280;72219;48.186;11.554;2023-11-21T08:13:42;95305.91;;;16.12;45.71
82555;BME280;72219;48.186;11.554;2023-11-21T08:16:07;95296.72;;;16.16;45.74
82555;BME280;72219;48.186;11.554;2023-11-21T08:18:33;95303.06;;;16.28;44.95
82555;BME280;72219;48.186;11.554;2023-11-21T08:21:00;95289.69;;;16.17;45.19
82555;BME280;72219;48.186;11.554;2023-11-21T08:23:25;95292.63;;;16.28;45.19
82555;BME280;72219;48.186;11.554;2023-11-21T08:25:52;95308.38;;;16.35;45.28
82555;BME280;72219;48.186;11.554;2023-11-21T08:28:28;95301.53;;;16.34;45.08
82555;BME280;72219;48.186;11.554;2023-11-21T08:30:53;95290.50;;;16.17;45.62
82555;BME280;72219;48.186;11.554;2023-11-21T08:33:22;95302.47;;;16.26;45.81
82555;BME280;72219;48.186;11.554;2023-11-21T08:35:49;95292.50;;;16.15;45.47
82555;BME280;72219;48.186;11.554;2023-11-21T08:38:14;95294.50;;;16.13;45.79
82555;BME280;72219;48.186;11.554;2023-11-21T08:40:42;95298.22;;;16.25;45.73
82555;BME280;72219;48.186;11.554;2023-11-21T08:43:08;95295.94;;;16.16;45.49
82555;BME280;72219;48.186;11.554;2023-11-21T08:45:33;95304.00;;;16.21;45.95
82555;BME280;72219;48.186;11.554;2023-11-21T08:48:01;95295.25;;;16.28;45.32
82555;BME280;72219;48.186;11.554;2023-11-21T08:50:27;95302.47;;;16.26;45.65
82555;BME280;72219;48.186;11.554;2023-11-21T08:52:54;95302.00;;;16.23;45.83
82555;BME280;72219;48.186;11.554;2023-11-21T08:55:19;95308.28;;;16.28;45.82
82555;BME280;72219;48.186;11.554;2023-11-21T08:57:46;95311.28;;;16.25;45.66
82555;BME280;72219;48.186;11.554;2023-11-21T09:00:12;95308.94;;;16.30;45.11
82555;BME280;72219;48.186;11.554;2023-11-21T09:02:41;95305.31;;;16.31;45.10
82555;BME280;72219;48.186;11.554;2023-11-21T09:05:26;95314.38;;;16.36;45.42
82555;BME280;72219;48.186;11.554;2023-11-21T09:07:51;95319.44;;;16.37;45.39
82555;BME280;72219;48.186;11.554;2023-11-21T09:10:17;95316.84;;;16.37;45.03
82555;BME280;72219;48.186;11.554;2023-11-21T09:12:42;95303.25;;;16.27;45.22
82555;BME280;72219;48.186;11.554;2023-11-21T09:15:08;95324.94;;;16.27;45.44
82555;BME280;72219;48.186;11.554;2023-11-21T09:17:38;95327.94;;;16.24;45.94
82555;BME280;72219;48.186;11.554;2023-11-21T09:20:04;95318.06;;;16.20;45.20
82555;BME280;72219;48.186;11.554;2023-11-21T09:22:31;95319.50;;;16.22;45.86
82555;BME280;72219;48.186;11.554;2023-11-21T09:25:00;95319.19;;;16.32;45.48
82555;BME280;72219;48.186;11.554;2023-11-21T09:27:25;95316.88;;;16.22;45.34
82555;BME280;72219;48.186;11.554;2023-11-21T09:29:54;95336.91;;;16.37;45.14
82555;BME280;72219;48.186;11.554;2023-11-21T09:32:20;95332.91;;;16.41;45.33
82555;BME280;72219;48.186;11.554;2023-11-21T09:34:50;95318.28;;;16.40;45.32
82555;BME280;72219;48.186;11.554;2023-11-21T09:37:16;95346.50;;;16.51;45.25
82555;BME280;72219;48.186;11.554;2023-11-21T09:39:41;95344.94;;;16.57;44.74
82555;BME280;72219;48.186;11.554;2023-11-21T09:42:11;95340.78;;;16.62;44.52
82555;BME280;72219;48.186;11.554;2023-11-21T09:47:31;95319.88;;;16.41;44.91
82555;BME280;72219;48.186;11.554;2023-11-21T09:49:59;95333.31;;;16.59;44.78
82555;BME280;72219;48.186;11.554;2023-11-21T09:52:27;95332.69;;;16.57;44.54
82555;BME280;72219;48.186;11.554;2023-11-21T09:54:54;95338.78;;;16.64;44.81
82555;BME280;72219;48.186;11.554;2023-11-21T09:57:20;95343.03;;;16.65;44.84
82555;BME280;72219;48.186;11.554;2023-11-21T09:59:54;95327.59;;;16.71;44.36
82555;BME280;72219;48.186;11.554;2023-11-21T10:02:28;95331.75;;;16.87;43.93
82555;BME280;72219;48.186;11.554;2023-11-21T10:05:00;95328.22;;;16.94;43.82
82555;BME280;72219;48.186;11.554;2023-11-21T10:07:26;95328.47;;;17.00;43.90
82555;BME280;72219;48.186;11.554;2023-11-21T10:09:55;95329.28;;;17.00;43.83
82555;BME280;72219;48.186;11.554;2023-11-21T10:12:22;95333.56;;;16.86;44.31
82555;BME280;72219;48.186;11.554;2023-11-21T10:14:50;95340.72;;;16.99;44.05
82555;BME280;72219;48.186;11.554;2023-11-21T10:17:18;95338.16;;;17.06;43.25
82555;BME280;72219;48.186;11.554;2023-11-21T10:19:46;95337.38;;;17.05;43.60
82555;BME280;72219;48.186;11.554;2023-11-21T10:22:14;95323.63;;;16.96;43.82
82555;BME280;72219;48.186;11.554;2023-11-21T10:24:40;95327.16;;;16.89;44.30
82555;BME280;72219;48.186;11.554;2023-11-21T10:27:08;95331.66;;;16.95;44.00
82555;BME280;72219;48.186;11.554;2023-11-21T10:29:34;95331.75;;;16.87;44.12
82555;BME280;72219;48.186;11.554;2023-11-21T10:32:02;95336.78;;;16.88;44.06
82555;BME280;72219;48.186;11.554;2023-11-21T10:34:27;95342.78;;;16.82;44.53
82555;BME280;72219;48.186;11.554;2023-11-21T10:36:53;95344.78;;;17.02;43.88
82555;BME280;72219;48.186;11.554;2023-11-21T10:39:19;95336.44;;;17.13;43.91
82555;BME280;72219;48.186;11.554;2023-11-21T10:41:46;95339.78;;;17.07;43.52
82555;BME280;72219;48.186;11.554;2023-11-21T10:44:20;95348.31;;;17.15;43.75
82555;BME280;72219;48.186;11.554;2023-11-21T10:46:49;95339.78;;;17.07;43.40
82555;BME280;72219;48.186;11.554;2023-11-21T10:49:17;95343.84;;;17.09;43.47
82555;BME280;72219;48.186;11.554;2023-11-21T10:51:44;95346.69;;;17.14;43.55
82555;BME280;72219;48.186;11.554;2023-11-21T10:54:10;95318.41;;;16.96;43.71
82555;BME280;72219;48.186;11.554;2023-11-21T10:56:39;95301.84;;;16.89;43.62
82555;BME280;72219;48.186;11.554;2023-11-21T10:59:12;95294.91;;;16.81;43.86
82555;BME280;72219;48.186;11.554;2023-11-21T11:01:42;95312.31;;;16.89;43.75
82555;BME280;72219;48.186;11.554;2023-11-21T11:04:14;95276.41;;;16.76;43.71
82555;BME280;72219;48.186;11.554;2023-11-21T11:06:56;95302.44;;;17.13;43.41
82555;BME280;72219;48.186;11.554;2023-11-21T11:09:23;95292.41;;;17.17;42.87
82555;BME280;72219;48.186;11.554;2023-11-21T11:11:49;95285.94;;;17.12;43.09
82555;BME280;72219;48.186;11.554;2023-11-21T11:14:18;95323.06;;;17.29;43.65
82555;BME280;72219;48.186;11.554;2023-11-21T11:16:45;95326.47;;;17.30;43.55
82555;BME280;72219;48.186;11.554;2023-11-21T11:19:10;95331.50;;;17.31;43.13
82555;BME280;72219;48.186;11.554;2023-11-21T11:21:47;95335.66;;;17.19;43.82
82555;BME280;72219;48.186;11.554;2023-11-21T11:24:42;95321.94;;;17.10;43.65
82555;BME280;72219;48.186;11.554;2023-11-21T11:30:30;95329.53;;;17.05;43.74
82555;BME280;72219;48.186;11.554;2023-11-21T11:35:48;95332.69;;;17.22;43.29
82555;BME280;72219;48.186;11.554;2023-11-21T11:38:18;95338.72;;;17.23;43.47
82555;BME280;72219;48.186;11.554;2023-11-21T11:40:47;95336.25;;;17.14;43.95
82555;BME280;72219;48.186;11.554;2023-11-21T11:43:42;95333.56;;;17.08;43.89
82555;BME280;72219;48.186;11.554;2023-11-21T11:46:11;95306.00;;;17.05;43.60
82555;BME280;72219;48.186;11.554;2023-11-21T11:48:40;95311.53;;;17.17;43.64
82555;BME280;72219;48.186;11.554;2023-11-21T11:53:41;95326.47;;;17.30;43.35
82555;BME280;72219;48.186;11.554;2023-11-21T11:56:19;95326.38;;;17.45;43.18
82555;BME280;72219;48.186;11.554;2023-11-21T11:58:55;95323.56;;;17.40;43.16
82555;BME280;72219;48.186;11.554;2023-11-21T12:01:21;95315.06;;;17.38;43.05
82555;BME280;72219;48.186;11.554;2023-11-21T12:06:51;95306.53;;;17.22;43.46
82555;BME280;72219;48.186;11.554;2023-11-21T12:09:22;95321.44;;;17.28;43.40
82555;BME280;72219;48.186;11.554;2023-11-21T12:11:48;95310.78;;;17.30;43.05
82555;BME280;72219;48.186;11.554;2023-11-21T12:14:15;95309.59;;;17.32;43.30
82555;BME280;72219;48.186;11.554;2023-11-21T12:16:41;95314.84;;;17.32;43.44
82555;BME280;72219;48.186;11.554;2023-11-21T12:19:09;95320.25;;;17.31;43.47
82555;BME280;72219;48.186;11.554;2023-11-21T12:21:36;95316.13;;;17.15;44.00
82555;BME280;72219;48.186;11.554;2023-11-21T12:24:01;95323.50;;;17.05;43.95
82555;BME280;72219;48.186;11.554;2023-11-21T12:26:29;95316.16;;;16.93;44.41
82555;BME280;72219;48.186;11.554;2023-11-21T12:28:55;95325.47;;;17.03;44.04
82555;BME280;72219;48.186;11.554;2023-11-21T12:31:24;95316.91;;;17.09;43.98
82555;BME280;72219;48.186;11.554;2023-11-21T12:33:50;95289.09;;;17.01;43.61
82555;BME280;72219;48.186;11.554;2023-11-21T12:36:24;95306.69;;;17.21;43.77
82555;BME280;72219;48.186;11.554;2023-11-21T12:38:55;95308.13;;;17.23;43.65
82555;BME280;72219;48.186;11.554;2023-11-21T12:41:20;95320.66;;;17.28;43.48
82555;BME280;72219;48.186;11.554;2023-11-21T12:43:47;95304.88;;;17.14;43.49
82555;BME280;72219;48.186;11.554;2023-11-21T12:46:14;95312.38;;;17.24;43.51
82555;BME280;72219;48.186;11.554;2023-11-21T12:48:46;95302.06;;;17.16;43.58
82555;BME280;72219;48.186;11.554;2023-11-21T12:51:12;95316.38;;;17.20;43.58
82555;BME280;72219;48.186;11.554;2023-11-21T12:53:40;95333.44;;;17.16;43.77
82555;BME280;72219;48.186;11.554;2023-11-21T12:56:10;95332.50;;;17.24;43.78
82555;BME280;72219;48.186;11.554;2023-11-21T12:58:37;95338.31;;;17.26;43.55
82555;BME280;72219;48.186;11.554;2023-11-21T13:01:06;95335.66;;;17.19;43.83
82555;BME280;72219;48.186;11.554;2023-11-21T13:03:40;95337.91;;;17.22;43.90